Time;durP1;ratioP1;P1;durP2;ratioP2;P2;SDS_P1;SDS_P2;PMS_P1;PMS_P2;Temp;Humidity;BMP_temperature;BMP_pressure;BME280_temperature;BME280_humidity;BME280_pressure;Samples;Min_cycle;Max_cycle;Signal;HPM_P1;HPM_P2
2021/05/27 00:01:15;;;;;;;5.90;4.05;;;13.80;94.90;;;;;;5016419;28;20026;-52
2021/05/27 00:03:42;;;;;;;3.75;3.45;;;13.80;94.60;;;;;;5016295;28;20482;-54
2021/05/27 00:06:09;;;;;;;4.78;4.18;;;13.70;94.60;;;;;;5016307;28;20018;-51
2021/05/27 00:08:37;;;;;;;4.40;3.90;;;13.90;94.10;;;;;;5016301;28;20026;-54
2021/05/27 00:11:04;;;;;;;4.30;4.00;;;13.90;94.20;;;;;;5016142;28;20475;-49
2021/05/27 00:13:31;;;;;;;5.03;4.47;;;13.90;94.40;;;;;;5016099;28;20033;-50
2021/05/27 00:15:59;;;;;;;3.97;3.67;;;14.20;94.60;;;;;;5015855;28;20132;-50
2021/05/27 00:18:26;;;;;;;4.78;4.20;;;14.30;94.50;;;;;;5016271;28;20033;-52
2021/05/27 00:20:54;;;;;;;6.65;3.85;;;14.30;94.30;;;;;;5015880;28;20462;-51
2021/05/27 00:23:21;;;;;;;4.10;3.67;;;14.40;94.00;;;;;;5016213;28;20022;-53
2021/05/27 00:25:48;;;;;;;4.65;4.25;;;14.50;93.90;;;;;;5016055;28;20018;-52
2021/05/27 00:28:16;;;;;;;7.30;3.80;;;14.40;93.70;;;;;;5015955;28;20052;-55
2021/05/27 00:30:43;;;;;;;4.30;3.70;;;14.60;94.00;;;;;;5015968;28;20025;-49
2021/05/27 00:33:10;;;;;;;5.63;3.60;;;14.40;93.10;;;;;;5015980;28;20030;-51
2021/05/27 00:35:37;;;;;;;5.00;3.50;;;14.60;93.10;;;;;;5015900;28;20065;-53
2021/05/27 00:38:05;;;;;;;6.25;3.60;;;14.60;93.80;;;;;;5015796;28;20478;-52
2021/05/27 00:40:32;;;;;;;3.60;3.40;;;14.80;93.50;;;;;;5015774;28;20018;-52
2021/05/27 00:43:00;;;;;;;3.95;3.63;;;14.80;93.70;;;;;;5015703;28;20025;-51
2021/05/27 00:45:27;;;;;;;7.75;4.05;;;14.80;93.40;;;;;;5015469;28;20029;-53
2021/05/27 00:47:54;;;;;;;4.40;4.00;;;15.00;93.70;;;;;;5015493;28;20117;-53
2021/05/27 00:50:22;;;;;;;4.30;3.90;;;14.90;93.20;;;;;;5015621;28;20013;-53
2021/05/27 00:52:50;;;;;;;4.80;4.13;;;14.90;93.20;;;;;;5014453;28;20025;-50
2021/05/27 00:55:20;;;;;;;4.53;3.38;;;15.00;93.10;;;;;;5015336;28;20569;-54
2021/05/27 00:57:48;;;;;;;5.20;3.75;;;15.20;93.20;;;;;;5015328;28;20022;-51
2021/05/27 01:00:22;;;;;;;5.57;3.10;;;15.30;93.40;;;;;;5015199;28;20111;-50
2021/05/27 01:02:49;;;;;;;4.78;3.60;;;15.40;92.70;;;;;;5015360;28;20080;-51
2021/05/27 01:05:18;;;;;;;5.25;3.85;;;15.40;92.90;;;;;;5015765;28;20301;-53
2021/05/27 01:07:46;;;;;;;4.28;3.75;;;15.40;92.60;;;;;;5015391;28;20463;-51
2021/05/27 01:10:15;;;;;;;4.10;3.80;;;15.40;92.90;;;;;;5014900;28;20105;-51
2021/05/27 01:12:42;;;;;;;5.10;3.35;;;15.40;92.80;;;;;;5015135;28;20025;-56
2021/05/27 01:15:29;;;;;;;3.40;3.10;;;15.80;92.80;;;;;;5015369;28;20495;-55
2021/05/27 01:18:17;;;;;;;7.05;3.47;;;15.80;92.60;;;;;;5015139;28;20025;-56
2021/05/27 01:20:47;;;;;;;3.50;3.20;;;15.90;92.00;;;;;;5015111;28;20105;-55
2021/05/27 01:23:15;;;;;;;3.50;3.20;;;16.00;92.60;;;;;;5015010;28;20115;-56
2021/05/27 01:25:55;;;;;;;4.90;3.85;;;15.90;91.60;;;;;;5014821;28;20037;-55
2021/05/27 01:28:24;;;;;;;4.45;3.10;;;16.10;92.20;;;;;;5014938;28;20168;-57
2021/05/27 01:30:51;;;;;;;5.22;3.47;;;16.10;91.40;;;;;;5014619;28;20113;-57
2021/05/27 01:33:19;;;;;;;4.05;3.65;;;15.90;91.60;;;;;;5014879;28;20112;-53
2021/05/27 01:35:47;;;;;;;4.10;3.45;;;16.20;92.00;;;;;;5014846;28;20161;-55
2021/05/27 01:38:19;;;;;;;3.70;3.30;;;16.20;91.80;;;;;;5014789;28;20036;-56
2021/05/27 01:40:47;;;;;;;4.68;3.92;;;16.30;91.60;;;;;;5014692;28;20049;-53
2021/05/27 01:43:15;;;;;;;3.67;3.38;;;16.40;91.40;;;;;;5014526;28;20433;-56
2021/05/27 01:45:43;;;;;;;5.07;3.42;;;16.50;91.50;;;;;;5014606;28;20024;-58
2021/05/27 01:48:10;;;;;;;4.22;3.90;;;16.60;91.00;;;;;;5014773;28;20021;-58
2021/05/27 01:50:48;;;;;;;4.38;3.38;;;16.40;91.20;;;;;;5014476;28;20025;-57
2021/05/27 01:53:18;;;;;;;4.05;3.75;;;16.40;91.80;;;;;;5014553;28;20026;-53
2021/05/27 01:55:50;;;;;;;4.13;3.20;;;16.70;91.40;;;;;;5014247;28;20478;-56
2021/05/27 01:58:18;;;;;;;7.43;3.30;;;16.70;90.70;;;;;;5013947;28;20044;-55
2021/05/27 02:00:46;;;;;;;4.43;2.88;;;16.80;90.90;;;;;;5014218;28;20406;-54
2021/05/27 02:03:14;;;;;;;3.80;3.40;;;16.90;90.50;;;;;;5014312;28;20483;-55
2021/05/27 02:05:41;;;;;;;4.15;3.10;;;17.00;90.30;;;;;;5013887;28;20029;-55
2021/05/27 02:08:10;;;;;;;4.40;2.72;;;17.10;90.90;;;;;;5014091;28;20022;-54
2021/05/27 02:10:37;;;;;;;5.53;2.83;;;16.90;89.60;;;;;;5014316;28;20026;-52
2021/05/27 02:13:04;;;;;;;3.63;2.67;;;16.90;90.50;;;;;;5013975;28;20025;-54
2021/05/27 02:15:33;;;;;;;3.65;2.65;;;17.00;90.00;;;;;;5013941;28;20018;-53
2021/05/27 02:18:00;;;;;;;3.03;2.75;;;17.00;88.90;;;;;;5014298;28;20030;-54
2021/05/27 02:20:27;;;;;;;3.13;2.78;;;17.20;90.00;;;;;;5013694;28;20022;-55
2021/05/27 02:22:55;;;;;;;3.03;2.72;;;17.20;88.80;;;;;;5014048;28;20098;-52
2021/05/27 02:25:22;;;;;;;3.15;2.50;;;17.10;88.30;;;;;;5013856;28;20382;-55
2021/05/27 02:27:49;;;;;;;3.30;3.10;;;17.00;88.30;;;;;;5013709;28;20018;-53
2021/05/27 02:30:17;;;;;;;3.28;2.85;;;17.10;87.90;;;;;;5013740;28;20534;-52
2021/05/27 02:32:45;;;;;;;3.42;3.03;;;17.20;89.30;;;;;;5013939;28;20165;-51
2021/05/27 02:35:13;;;;;;;3.63;3.30;;;17.40;88.90;;;;;;5013684;28;20028;-52
2021/05/27 02:37:40;;;;;;;4.88;3.20;;;17.70;90.20;;;;;;5013677;28;20029;-52
2021/05/27 02:40:08;;;;;;;4.35;3.85;;;17.40;88.30;;;;;;5013725;28;20030;-55
2021/05/27 02:42:35;;;;;;;3.90;3.60;;;17.60;89.90;;;;;;5013485;28;20360;-53
2021/05/27 02:45:04;;;;;;;3.63;3.33;;;17.70;88.10;;;;;;5013607;28;20444;-52
2021/05/27 02:47:31;;;;;;;3.58;3.28;;;17.90;88.70;;;;;;5013497;28;20033;-54
2021/05/27 02:49:59;;;;;;;4.82;3.10;;;17.80;87.90;;;;;;5013338;28;20025;-53
2021/05/27 02:52:26;;;;;;;3.97;3.67;;;18.00;87.90;;;;;;5013461;28;20025;-54
2021/05/27 02:54:53;;;;;;;3.88;2.97;;;17.80;88.90;;;;;;5013104;28;20032;-52
2021/05/27 02:57:21;;;;;;;3.55;3.35;;;18.00;87.40;;;;;;5013174;28;20040;-54
2021/05/27 02:59:48;;;;;;;3.42;3.22;;;17.90;88.20;;;;;;5012896;28;20061;-52
2021/05/27 03:02:15;;;;;;;3.00;2.80;;;17.60;88.00;;;;;;5013399;28;20022;-53
2021/05/27 03:04:42;;;;;;;4.47;3.15;;;17.80;88.30;;;;;;5013232;28;20022;-55
2021/05/27 03:07:10;;;;;;;3.92;3.63;;;17.70;88.20;;;;;;5013181;28;20018;-54
2021/05/27 03:09:37;;;;;;;4.13;3.72;;;18.10;88.70;;;;;;5013075;28;20029;-52
2021/05/27 03:12:05;;;;;;;3.53;3.33;;;18.10;88.20;;;;;;5013199;28;20026;-54
2021/05/27 03:14:32;;;;;;;4.03;3.58;;;18.00;88.00;;;;;;5013092;28;20500;-54
2021/05/27 03:16:59;;;;;;;4.00;3.30;;;18.10;88.50;;;;;;5012554;28;20030;-53
2021/05/27 03:19:26;;;;;;;3.00;2.70;;;18.10;89.00;;;;;;5013009;28;20029;-54
2021/05/27 03:21:54;;;;;;;3.00;2.90;;;18.00;86.70;;;;;;5013069;28;20018;-52
2021/05/27 03:24:21;;;;;;;3.55;3.30;;;18.00;89.00;;;;;;5013281;28;20026;-53
2021/05/27 03:26:51;;;;;;;4.53;3.60;;;18.10;86.60;;;;;;5012972;28;20030;-54
2021/05/27 03:29:19;;;;;;;4.22;3.83;;;18.10;87.80;;;;;;5013050;28;20022;-54
2021/05/27 03:31:47;;;;;;;3.22;2.92;;;18.20;87.80;;;;;;5013075;28;20394;-51
2021/05/27 03:34:14;;;;;;;3.63;2.95;;;18.10;88.00;;;;;;5012952;28;20032;-50
2021/05/27 03:36:42;;;;;;;4.80;3.40;;;17.90;89.10;;;;;;5012942;28;20056;-52
2021/05/27 03:39:09;;;;;;;3.55;3.28;;;18.20;89.20;;;;;;5012870;28;20022;-52
2021/05/27 03:41:36;;;;;;;4.00;3.42;;;18.10;88.80;;;;;;5012843;28;20482;-53
2021/05/27 03:44:04;;;;;;;3.67;3.38;;;18.10;87.80;;;;;;5012898;28;20080;-50
2021/05/27 03:46:35;;;;;;;3.67;3.08;;;18.20;88.40;;;;;;5012639;28;20433;-53
2021/05/27 03:49:02;;;;;;;4.97;3.40;;;18.00;89.00;;;;;;5013156;28;20022;-55
2021/05/27 03:51:30;;;;;;;3.30;3.00;;;18.00;90.00;;;;;;5012725;28;20037;-54
2021/05/27 03:53:57;;;;;;;3.63;3.33;;;17.90;88.30;;;;;;5012796;28;20487;-54
2021/05/27 03:56:26;;;;;;;3.20;3.00;;;17.80;88.20;;;;;;5012472;28;20033;-54
2021/05/27 04:01:39;;;;;;;3.78;3.17;;;17.80;89.80;;;;;;5013059;28;20064;-54
2021/05/27 04:09:40;;;;;;;4.05;3.10;;;17.80;88.50;;;;;;5012774;28;20421;-54
2021/05/27 04:17:41;;;;;;;4.95;2.95;;;18.10;90.70;;;;;;5012741;28;20037;-49
2021/05/27 04:20:09;;;;;;;3.00;2.80;;;18.20;89.30;;;;;;5012413;28;20022;-53
2021/05/27 04:22:39;;;;;;;3.53;3.00;;;18.10;89.20;;;;;;5012489;28;20022;-53
2021/05/27 04:25:07;;;;;;;3.30;3.10;;;18.20;89.30;;;;;;5012496;28;20018;-51
2021/05/27 04:27:35;;;;;;;3.70;3.10;;;18.10;89.60;;;;;;5013181;28;20402;-51
2021/05/27 04:30:13;;;;;;;4.30;3.05;;;18.10;89.90;;;;;;5015793;28;20033;-53
2021/05/27 04:32:54;;;;;;;3.47;3.17;;;18.10;89.80;;;;;;5016154;28;20502;-53
2021/05/27 04:35:24;;;;;;;3.05;2.85;;;18.00;89.30;;;;;;5015673;28;20085;-51
2021/05/27 04:37:53;;;;;;;4.28;2.80;;;17.90;90.10;;;;;;5015582;28;20032;-52
2021/05/27 04:40:20;;;;;;;3.25;2.95;;;18.00;89.50;;;;;;5015648;28;20025;-50
2021/05/27 04:42:48;;;;;;;2.95;2.75;;;18.00;90.20;;;;;;5016007;28;20029;-54
2021/05/27 04:45:16;;;;;;;3.85;2.78;;;17.90;90.00;;;;;;5015917;28;20034;-51
2021/05/27 04:47:43;;;;;;;3.13;2.92;;;17.70;89.70;;;;;;5015392;28;20026;-55
2021/05/27 04:50:12;;;;;;;3.40;3.10;;;17.70;90.00;;;;;;5015601;28;20077;-52
2021/05/27 04:52:40;;;;;;;3.00;2.70;;;17.80;89.30;;;;;;5015262;28;20076;-52
2021/05/27 04:55:10;;;;;;;2.95;2.70;;;17.90;90.00;;;;;;5015442;28;20080;-52
2021/05/27 04:57:38;;;;;;;3.30;3.00;;;17.60;89.60;;;;;;5015373;28;20033;-52
2021/05/27 05:00:09;;;;;;;4.03;2.78;;;17.70;90.30;;;;;;5015131;28;20052;-53
2021/05/27 05:02:37;;;;;;;2.90;2.60;;;17.80;90.00;;;;;;4998098;28;20018;-52
2021/05/27 05:05:06;;;;;;;3.80;2.90;;;17.70;90.20;;;;;;5015265;28;20105;-50
2021/05/27 05:07:34;;;;;;;2.88;2.67;;;17.70;90.20;;;;;;5015175;28;20041;-54
2021/05/27 05:10:01;;;;;;;4.50;2.63;;;17.80;90.30;;;;;;5015293;28;20037;-51
2021/05/27 05:12:28;;;;;;;3.20;3.00;;;17.70;90.20;;;;;;5015330;28;20030;-52
2021/05/27 05:14:56;;;;;;;3.33;3.03;;;17.70;90.00;;;;;;5014969;28;20038;-52
2021/05/27 05:17:23;;;;;;;3.00;2.80;;;17.80;90.30;;;;;;5015188;28;20022;-52
2021/05/27 05:19:50;;;;;;;3.17;2.70;;;17.70;90.10;;;;;;5014929;28;20487;-51
2021/05/27 05:22:18;;;;;;;4.38;2.85;;;17.70;90.40;;;;;;5014920;28;20042;-53
2021/05/27 05:24:45;;;;;;;2.50;2.30;;;17.70;90.60;;;;;;5014902;28;20084;-53
2021/05/27 05:27:12;;;;;;;2.88;2.65;;;17.70;90.70;;;;;;5014794;28;20125;-52
2021/05/27 05:29:40;;;;;;;3.00;2.90;;;17.60;90.40;;;;;;5014888;28;20395;-55
2021/05/27 05:32:07;;;;;;;2.95;2.55;;;17.60;90.40;;;;;;5014609;28;20077;-54
2021/05/27 05:34:34;;;;;;;2.40;2.30;;;17.60;90.40;;;;;;5014552;28;20030;-52
2021/05/27 05:37:02;;;;;;;3.90;2.67;;;17.60;90.70;;;;;;5014707;28;20026;-54
2021/05/27 05:39:29;;;;;;;2.80;2.60;;;17.60;90.80;;;;;;5013907;28;20403;-54
2021/05/27 05:41:56;;;;;;;3.03;2.83;;;17.60;90.20;;;;;;5014592;28;20021;-54
2021/05/27 05:44:23;;;;;;;3.15;2.95;;;17.50;90.20;;;;;;5014507;28;20100;-53
2021/05/27 05:46:51;;;;;;;3.20;3.00;;;17.40;90.80;;;;;;5014480;28;20097;-52
2021/05/27 05:49:18;;;;;;;3.85;2.75;;;17.30;90.30;;;;;;5014365;28;20026;-53
2021/05/27 05:51:45;;;;;;;6.68;3.88;;;17.40;90.30;;;;;;5014346;28;20030;-53
2021/05/27 05:54:13;;;;;;;4.60;2.90;;;17.40;90.40;;;;;;5014399;28;20021;-54
2021/05/27 05:56:40;;;;;;;2.80;2.60;;;17.30;90.20;;;;;;5014186;28;20474;-51
2021/05/27 05:59:07;;;;;;;2.75;2.53;;;17.30;90.60;;;;;;5014053;28;20088;-54
2021/05/27 06:01:35;;;;;;;2.30;2.20;;;17.20;90.70;;;;;;5014230;28;20371;-53
2021/05/27 06:04:02;;;;;;;3.22;3.00;;;17.00;90.70;;;;;;5014214;28;20033;-53
2021/05/27 06:06:29;;;;;;;3.63;3.03;;;16.90;90.60;;;;;;5014070;28;20025;-54
2021/05/27 06:08:57;;;;;;;2.88;2.67;;;16.90;90.60;;;;;;5013958;28;20026;-53
2021/05/27 06:11:25;;;;;;;3.13;2.83;;;16.90;91.00;;;;;;5013855;28;20112;-53
2021/05/27 06:13:54;;;;;;;3.50;3.20;;;16.80;91.30;;;;;;5014036;28;20026;-50
2021/05/27 06:16:21;;;;;;;3.03;2.80;;;16.80;91.10;;;;;;5013839;28;20399;-54
2021/05/27 06:18:48;;;;;;;3.00;2.80;;;16.70;91.10;;;;;;5013819;28;20022;-50
2021/05/27 06:21:16;;;;;;;3.85;2.85;;;16.60;91.60;;;;;;4996464;28;20037;-51
2021/05/27 06:23:44;;;;;;;4.00;3.15;;;16.60;90.90;;;;;;5013794;28;20029;-54
2021/05/27 06:26:12;;;;;;;4.03;3.05;;;16.70;90.90;;;;;;5013533;28;20022;-55
2021/05/27 06:28:39;;;;;;;3.33;3.10;;;16.60;91.40;;;;;;5013632;28;20030;-52
2021/05/27 06:31:06;;;;;;;4.65;3.00;;;16.50;92.00;;;;;;5013500;28;20044;-55
2021/05/27 06:33:35;;;;;;;2.85;2.75;;;16.40;91.80;;;;;;5013476;28;20509;-53
2021/05/27 06:36:03;;;;;;;3.20;3.00;;;16.30;92.10;;;;;;5013794;28;20064;-55
2021/05/27 06:38:30;;;;;;;3.10;2.72;;;16.30;91.90;;;;;;5013365;28;20053;-52
2021/05/27 06:40:58;;;;;;;3.38;3.17;;;16.20;92.20;;;;;;5013529;28;20026;-51
2021/05/27 06:43:25;;;;;;;3.72;3.40;;;16.20;92.40;;;;;;5013506;28;20018;-51
2021/05/27 06:45:52;;;;;;;4.47;4.03;;;16.10;92.80;;;;;;5013376;28;20032;-49
2021/05/27 06:48:20;;;;;;;4.20;3.80;;;16.20;92.50;;;;;;5013379;28;20030;-54
2021/05/27 06:50:47;;;;;;;3.75;3.38;;;16.10;92.60;;;;;;5012475;28;20025;-53
2021/05/27 06:53:18;;;;;;;4.18;3.78;;;16.00;92.60;;;;;;5013058;28;20032;-50
2021/05/27 06:55:47;;;;;;;5.32;3.40;;;15.90;92.70;;;;;;4996169;28;20025;-53
2021/05/27 06:58:16;;;;;;;4.20;3.50;;;16.00;92.70;;;;;;5013056;28;20042;-49
2021/05/27 07:00:43;;;;;;;3.58;3.28;;;15.90;92.80;;;;;;5013079;28;20083;-53
2021/05/27 07:03:18;;;;;;;3.72;3.22;;;15.80;93.00;;;;;;5013077;28;20030;-54
2021/05/27 07:05:45;;;;;;;4.22;3.72;;;15.70;93.10;;;;;;5013116;28;20022;-54
2021/05/27 07:08:13;;;;;;;3.92;3.60;;;15.50;93.30;;;;;;5013006;28;20030;-52
2021/05/27 07:10:41;;;;;;;3.63;3.33;;;15.50;93.40;;;;;;5013180;28;20030;-52
2021/05/27 07:13:10;;;;;;;3.97;3.53;;;15.30;93.90;;;;;;5012974;28;20399;-52
2021/05/27 07:15:39;;;;;;;3.60;3.40;;;15.40;93.50;;;;;;5013198;28;20052;-57
2021/05/27 07:18:07;;;;;;;3.80;3.42;;;15.30;94.00;;;;;;5012942;28;20038;-55
2021/05/27 07:20:37;;;;;;;7.80;4.10;;;15.30;93.80;;;;;;5012830;28;20018;-55
2021/05/27 07:23:04;;;;;;;3.90;3.22;;;15.30;93.60;;;;;;5013077;28;20105;-56
2021/05/27 07:25:32;;;;;;;3.60;3.30;;;15.20;93.40;;;;;;5013156;28;20022;-55
2021/05/27 07:27:59;;;;;;;4.00;3.70;;;15.10;93.70;;;;;;5013028;28;20045;-54
2021/05/27 07:30:28;;;;;;;4.40;4.10;;;15.10;93.60;;;;;;5012944;28;20363;-55
2021/05/27 07:32:57;;;;;;;3.97;3.58;;;15.10;94.00;;;;;;5012903;28;20022;-55
2021/05/27 07:35:26;;;;;;;3.92;3.50;;;15.00;93.90;;;;;;5013056;28;20029;-52
2021/05/27 07:37:54;;;;;;;3.75;3.42;;;14.90;94.20;;;;;;5012940;28;20026;-54
2021/05/27 07:40:22;;;;;;;3.47;3.17;;;15.00;93.80;;;;;;5012713;28;20101;-56
2021/05/27 07:42:50;;;;;;;5.00;3.00;;;15.00;93.70;;;;;;5012772;28;20020;-57
2021/05/27 07:45:17;;;;;;;3.25;2.85;;;14.90;94.20;;;;;;5012871;28;20448;-51
2021/05/27 07:47:46;;;;;;;3.47;3.10;;;15.00;93.60;;;;;;5012694;28;20035;-56
2021/05/27 07:50:13;;;;;;;5.40;3.25;;;15.00;93.50;;;;;;5012776;28;20032;-56
2021/05/27 07:52:41;;;;;;;3.40;3.05;;;14.90;93.60;;;;;;5012733;28;20029;-54
2021/05/27 07:55:08;;;;;;;4.50;3.58;;;14.90;93.60;;;;;;5012835;28;20022;-55
2021/05/27 07:57:36;;;;;;;5.35;2.85;;;15.00;93.30;;;;;;5012549;28;20437;-55
2021/05/27 08:00:06;;;;;;;3.10;2.90;;;14.90;93.40;;;;;;5012334;28;20050;-54
2021/05/27 08:02:34;;;;;;;5.53;3.07;;;14.90;94.10;;;;;;5013764;28;20385;-55
2021/05/27 08:05:01;;;;;;;3.58;3.28;;;14.80;93.90;;;;;;5016421;28;20045;-56
2021/05/27 08:07:29;;;;;;;3.85;2.85;;;14.80;93.50;;;;;;5016581;28;20061;-54
2021/05/27 08:09:56;;;;;;;4.93;3.08;;;14.80;93.50;;;;;;5016537;28;20037;-55
2021/05/27 08:12:23;;;;;;;3.15;2.85;;;14.80;93.30;;;;;;5016277;28;20108;-57
2021/05/27 08:14:51;;;;;;;3.10;2.88;;;14.70;93.50;;;;;;5016223;28;20049;-54
2021/05/27 08:17:18;;;;;;;2.72;2.50;;;14.80;93.50;;;;;;5016243;28;20026;-53
2021/05/27 08:19:45;;;;;;;3.63;3.33;;;14.70;93.70;;;;;;5015719;28;20030;-54
2021/05/27 08:22:14;;;;;;;3.55;3.10;;;14.70;93.70;;;;;;5016126;28;20030;-51
2021/05/27 08:24:42;;;;;;;3.63;2.80;;;14.80;93.60;;;;;;5015978;28;20369;-54
2021/05/27 08:27:10;;;;;;;3.03;2.75;;;14.80;93.40;;;;;;5015961;28;20026;-55
2021/05/27 08:29:37;;;;;;;3.60;3.30;;;14.70;93.80;;;;;;5014967;28;20026;-53
2021/05/27 08:32:07;;;;;;;3.42;3.13;;;14.60;94.00;;;;;;5015709;28;20026;-52
2021/05/27 08:34:34;;;;;;;3.20;2.90;;;14.60;93.60;;;;;;5015749;28;20021;-54
2021/05/27 08:37:02;;;;;;;3.50;2.85;;;14.70;93.50;;;;;;5015826;28;20045;-54
2021/05/27 08:39:29;;;;;;;3.00;2.80;;;14.80;93.40;;;;;;5015987;28;20029;-58
2021/05/27 08:41:57;;;;;;;3.50;2.88;;;14.70;93.50;;;;;;5015677;28;20018;-54
2021/05/27 08:44:24;;;;;;;3.53;3.22;;;14.70;93.40;;;;;;5015928;28;20026;-57
2021/05/27 08:46:52;;;;;;;3.08;2.88;;;14.80;93.60;;;;;;5015676;28;20025;-56
2021/05/27 08:49:19;;;;;;;3.03;2.83;;;14.80;93.30;;;;;;5015756;28;20034;-53
2021/05/27 08:51:47;;;;;;;3.63;3.30;;;14.70;93.50;;;;;;5015439;28;20042;-54
2021/05/27 08:54:14;;;;;;;3.22;3.03;;;14.60;93.60;;;;;;5015469;28;20498;-55
2021/05/27 08:56:41;;;;;;;3.92;3.40;;;14.60;93.50;;;;;;5015432;28;20021;-53
2021/05/27 08:59:09;;;;;;;4.00;3.47;;;14.60;93.40;;;;;;5015038;28;20053;-55
2021/05/27 09:02:02;;;;;;;3.17;2.90;;;14.60;93.60;;;;;;5015511;28;20387;-56
2021/05/27 09:04:30;;;;;;;3.33;3.03;;;14.60;93.70;;;;;;5015292;28;20022;-58
2021/05/27 09:06:57;;;;;;;3.60;3.10;;;14.50;93.70;;;;;;5014969;28;20104;-51
2021/05/27 09:09:25;;;;;;;3.33;3.13;;;14.50;93.60;;;;;;5015313;28;20104;-58
2021/05/27 09:11:52;;;;;;;3.47;3.17;;;14.50;93.60;;;;;;5015600;28;20506;-57
2021/05/27 09:14:19;;;;;;;3.30;3.00;;;14.50;93.60;;;;;;5014412;28;20120;-57
2021/05/27 09:17:02;;;;;;;3.40;2.80;;;14.40;94.00;;;;;;5015118;28;20048;-58
2021/05/27 09:19:30;;;;;;;4.45;2.92;;;14.40;93.90;;;;;;5014843;28;20487;-57
2021/05/27 09:21:58;;;;;;;4.43;3.20;;;14.40;94.00;;;;;;5015041;28;20018;-58
2021/05/27 09:24:49;;;;;;;3.40;2.83;;;14.40;94.10;;;;;;5014895;28;20022;-55
2021/05/27 09:27:17;;;;;;;4.88;3.50;;;14.40;94.10;;;;;;5014890;28;20540;-53
2021/05/27 09:29:49;;;;;;;3.55;3.25;;;14.30;94.10;;;;;;5014841;28;20030;-58
2021/05/27 09:32:17;;;;;;;5.32;3.00;;;14.30;94.20;;;;;;5014888;28;20471;-58
2021/05/27 09:34:48;;;;;;;3.55;2.90;;;14.20;94.40;;;;;;5014781;28;20022;-56
2021/05/27 09:37:31;;;;;;;3.88;3.20;;;14.20;94.50;;;;;;5014567;28;20025;-56
2021/05/27 09:40:00;;;;;;;3.72;3.30;;;14.10;94.50;;;;;;5014578;28;20037;-57
2021/05/27 09:42:28;;;;;;;3.20;2.95;;;14.10;94.70;;;;;;5014675;28;20026;-56
2021/05/27 09:44:56;;;;;;;3.95;3.58;;;14.10;94.60;;;;;;5014522;28;20028;-55
2021/05/27 09:47:31;;;;;;;4.95;3.70;;;14.10;94.60;;;;;;5014764;28;20022;-56
2021/05/27 09:50:00;;;;;;;5.22;3.75;;;14.00;94.90;;;;;;5014619;28;20491;-53
2021/05/27 09:52:37;;;;;;;4.13;3.75;;;14.00;95.30;;;;;;5014677;28;20026;-56
2021/05/27 09:55:13;;;;;;;5.72;3.90;;;13.90;95.20;;;;;;5014263;28;20033;-55
2021/05/27 09:57:42;;;;;;;3.88;3.58;;;14.00;95.00;;;;;;5014311;28;20113;-55
2021/05/27 10:00:29;;;;;;;4.25;3.90;;;13.90;95.30;;;;;;5013950;28;20053;-55
2021/05/27 10:02:57;;;;;;;3.95;3.40;;;13.90;95.30;;;;;;5014231;28;20049;-54
2021/05/27 10:05:25;;;;;;;4.50;3.70;;;13.80;95.50;;;;;;5014151;28;20084;-53
2021/05/27 10:07:56;;;;;;;5.55;3.58;;;13.70;95.90;;;;;;5014244;28;20029;-56
2021/05/27 10:10:25;;;;;;;3.67;3.40;;;13.70;95.60;;;;;;5014224;28;20022;-54
2021/05/27 10:12:54;;;;;;;5.28;3.60;;;13.70;95.80;;;;;;5014049;28;20033;-54
2021/05/27 10:15:24;;;;;;;4.20;3.80;;;13.70;95.60;;;;;;5013875;28;20018;-55
2021/05/27 10:17:54;;;;;;;5.93;3.80;;;13.60;95.60;;;;;;5013811;28;20398;-55
2021/05/27 10:20:26;;;;;;;3.50;3.30;;;13.60;95.60;;;;;;5013642;28;20025;-56
2021/05/27 10:22:56;;;;;;;3.78;3.20;;;13.60;95.70;;;;;;5013482;28;20057;-56
2021/05/27 10:25:25;;;;;;;4.57;4.27;;;13.60;96.30;;;;;;5013241;28;20406;-56
2021/05/27 10:27:55;;;;;;;4.00;3.60;;;13.50;95.80;;;;;;5013543;28;20306;-54
2021/05/27 10:30:23;;;;;;;3.95;3.55;;;13.40;96.60;;;;;;5013721;28;20033;-52
2021/05/27 10:32:58;;;;;;;4.35;3.30;;;13.40;96.10;;;;;;5013546;28;20482;-55
2021/05/27 10:35:48;;;;;;;2.72;2.53;;;13.40;96.20;;;;;;5013519;28;20117;-53
2021/05/27 10:38:17;;;;;;;4.07;3.05;;;13.40;95.90;;;;;;5013688;28;20491;-51
2021/05/27 10:40:50;;;;;;;3.25;2.90;;;13.30;96.40;;;;;;5013341;28;20085;-51
2021/05/27 10:43:17;;;;;;;4.38;3.13;;;13.30;96.20;;;;;;5013147;28;20060;-50
2021/05/27 10:46:10;;;;;;;3.70;2.95;;;13.30;96.20;;;;;;5013369;28;20022;-54
2021/05/27 10:48:45;;;;;;;3.72;2.40;;;13.20;96.20;;;;;;5013043;28;20034;-54
2021/05/27 10:51:22;;;;;;;3.80;2.33;;;13.20;96.10;;;;;;5012972;28;20038;-54
2021/05/27 10:53:52;;;;;;;4.15;2.40;;;13.20;96.30;;;;;;5013065;28;20034;-53
2021/05/27 10:56:36;;;;;;;4.18;2.40;;;13.10;96.20;;;;;;5012560;28;20025;-56
2021/05/27 10:59:08;;;;;;;2.40;2.10;;;13.20;96.10;;;;;;5012540;28;20046;-55
2021/05/27 11:01:36;;;;;;;2.95;2.70;;;13.20;96.20;;;;;;5013100;28;20092;-49
2021/05/27 11:04:26;;;;;;;3.03;2.70;;;13.20;96.00;;;;;;5012819;28;20026;-53
2021/05/27 11:07:11;;;;;;;3.83;2.60;;;13.10;96.70;;;;;;5012811;28;20431;-56
2021/05/27 11:09:38;;;;;;;3.88;3.63;;;13.10;96.50;;;;;;5012842;28;20482;-49
2021/05/27 11:12:13;;;;;;;2.92;2.72;;;13.10;96.20;;;;;;5013087;28;20033;-54
2021/05/27 11:14:51;;;;;;;4.97;2.60;;;13.00;96.30;;;;;;5012682;28;20022;-54
2021/05/27 11:17:22;;;;;;;3.13;2.85;;;13.00;96.30;;;;;;5012902;28;20026;-55
2021/05/27 11:20:21;;;;;;;2.65;2.35;;;13.10;96.10;;;;;;5012614;28;20081;-53
2021/05/27 11:22:55;;;;;;;3.80;2.92;;;13.00;96.20;;;;;;5012647;28;20026;-56
2021/05/27 11:25:26;;;;;;;3.25;3.00;;;13.00;96.40;;;;;;5012846;28;20034;-55
2021/05/27 11:28:00;;;;;;;3.88;3.28;;;12.90;97.30;;;;;;5012608;28;20030;-55
2021/05/27 11:30:39;;;;;;;3.20;2.50;;;12.80;96.60;;;;;;5012658;28;20026;-55
2021/05/27 11:33:06;;;;;;;3.10;2.50;;;12.80;97.00;;;;;;5012564;28;20052;-54
2021/05/27 11:35:40;;;;;;;3.50;2.70;;;12.80;96.70;;;;;;5012801;28;20018;-56
2021/05/27 11:38:14;;;;;;;2.50;2.30;;;12.90;96.50;;;;;;5014394;28;20501;-52
2021/05/27 11:40:45;;;;;;;3.08;2.78;;;12.90;96.60;;;;;;5016560;28;20037;-55
2021/05/27 11:43:14;;;;;;;3.03;2.80;;;12.80;96.60;;;;;;5016538;28;20557;-52
2021/05/27 11:45:49;;;;;;;3.05;2.85;;;12.80;96.80;;;;;;5016479;28;20022;-54
2021/05/27 11:48:29;;;;;;;3.42;3.22;;;12.80;96.70;;;;;;5016195;28;20022;-56
2021/05/27 11:51:19;;;;;;;3.30;3.10;;;12.70;96.80;;;;;;5016315;28;20030;-63
2021/05/27 11:53:49;;;;;;;2.60;2.40;;;12.70;96.80;;;;;;5016374;28;20026;-54
2021/05/27 11:56:38;;;;;;;2.58;2.35;;;12.70;96.70;;;;;;5016134;28;20026;-54
2021/05/27 11:59:12;;;;;;;4.13;3.72;;;12.70;96.90;;;;;;5016036;28;20407;-55
2021/05/27 12:01:41;;;;;;;3.70;3.50;;;12.70;96.90;;;;;;5016348;28;20026;-50
2021/05/27 12:04:14;;;;;;;3.85;3.65;;;12.70;96.90;;;;;;5016464;28;20050;-55
2021/05/27 12:06:50;;;;;;;3.40;3.10;;;12.70;96.70;;;;;;5016351;28;20022;-55
2021/05/27 12:09:25;;;;;;;2.58;2.38;;;12.80;96.60;;;;;;5016033;28;20022;-54
2021/05/27 12:11:54;;;;;;;2.78;2.58;;;12.70;96.70;;;;;;5015987;28;20048;-55
2021/05/27 12:14:22;;;;;;;3.70;3.50;;;12.80;96.80;;;;;;5015940;28;20111;-57
2021/05/27 12:16:53;;;;;;;3.67;3.45;;;12.80;96.60;;;;;;5015847;28;20026;-54
2021/05/27 12:19:21;;;;;;;3.40;3.20;;;12.70;96.70;;;;;;5015689;28;20526;-55
2021/05/27 12:21:56;;;;;;;3.55;3.25;;;12.70;97.00;;;;;;5015832;28;20057;-54
2021/05/27 12:24:28;;;;;;;3.55;3.30;;;12.60;97.20;;;;;;5015931;28;20026;-56
2021/05/27 12:26:58;;;;;;;3.10;2.90;;;12.50;97.40;;;;;;5015681;28;20033;-55
2021/05/27 12:29:26;;;;;;;3.22;3.03;;;12.50;97.60;;;;;;5015654;28;20041;-52
2021/05/27 12:31:53;;;;;;;3.10;2.90;;;12.50;97.50;;;;;;5015727;28;20454;-52
2021/05/27 12:34:21;;;;;;;3.15;3.00;;;12.50;97.50;;;;;;4997911;28;20026;-53
2021/05/27 12:37:06;;;;;;;3.60;3.30;;;12.40;97.60;;;;;;5015438;28;20058;-55
2021/05/27 12:39:36;;;;;;;3.42;3.22;;;12.40;97.80;;;;;;5015483;28;20038;-53
2021/05/27 12:42:09;;;;;;;3.70;3.50;;;12.40;97.70;;;;;;5015664;28;20454;-53
2021/05/27 12:44:45;;;;;;;3.75;3.55;;;12.30;97.60;;;;;;5015498;28;20022;-55
2021/05/27 12:47:21;;;;;;;3.60;3.30;;;12.40;97.60;;;;;;5015810;28;20021;-54
2021/05/27 12:49:53;;;;;;;3.75;3.50;;;12.30;97.90;;;;;;4997722;28;20030;-54
2021/05/27 12:52:39;;;;;;;3.90;3.70;;;12.30;98.50;;;;;;5015089;28;20034;-55
2021/05/27 12:55:10;;;;;;;4.25;3.95;;;12.10;98.30;;;;;;5015250;28;20025;-56
2021/05/27 12:57:59;;;;;;;4.00;3.70;;;12.20;98.50;;;;;;5015362;28;20079;-57
2021/05/27 13:00:28;;;;;;;3.97;3.65;;;12.30;98.20;;;;;;5014940;28;20046;-53
2021/05/27 13:03:08;;;;;;;4.10;3.80;;;12.30;98.20;;;;;;5015331;28;20125;-53
2021/05/27 13:05:35;;;;;;;3.72;3.53;;;12.20;98.40;;;;;;5015079;28;20088;-52
2021/05/27 13:08:04;;;;;;;4.15;3.90;;;12.30;98.30;;;;;;5014924;28;20550;-56
2021/05/27 13:10:42;;;;;;;4.20;3.90;;;12.30;98.30;;;;;;5014966;28;20022;-54
2021/05/27 13:13:10;;;;;;;3.70;3.50;;;12.20;98.40;;;;;;5015170;28;20018;-52
2021/05/27 13:15:46;;;;;;;4.03;3.72;;;12.20;98.40;;;;;;5014971;28;20029;-53